Time,TemperatureF,DewpointF,PressureIn,WindDirection,WindDirectionDegrees,WindSpeedMPH,WindSpeedGustMPH,Humidity,HourlyPrecipIn,Conditions,Clouds,dailyrainin,SoftwareType,DateUTC
2013-02-20 00:00:00,41.3,40.5,29.58,WSW,248,9.0,14.0,97,0.00,,SKC,0.00,VWS V13.01,2013-02-20 05:00:00,
2013-02-20 00:10:00,41.1,40.3,29.58,West,270,10.0,17.0,97,0.00,,SKC,0.00,VWS V13.01,2013-02-20 05:10:00,
2013-02-20 00:20:00,40.7,39.9,29.58,West,270,12.0,20.0,97,0.00,,SKC,0.00,VWS V13.01,2013-02-20 05:20:00,
2013-02-20 00:30:00,40.3,39.5,29.58,West,270,14.0,22.0,97,0.00,,SKC,0.00,VWS V13.01,2013-02-20 05:30:00,
2013-02-20 00:40:00,40.0,39.2,29.59,WSW,248,15.0,24.0,97,0.00,,SKC,0.00,VWS V13.01,2013-02-20 05:40:00,
2013-02-20 00:50:00,39.8,39.0,29.59,WSW,248,15.0,23.0,97,0.00,,SKC,0.00,VWS V13.01,2013-02-20 05:50:00,
2013-02-20 01:00:00,39.5,38.7,29.59,WSW,248,15.0,27.0,97,0.00,,SKC,0.00,VWS V13.01,2013-02-20 06:00:00,
2013-02-20 01:20:00,38.8,37.8,29.60,West,270,16.0,25.0,96,0.00,,SKC,0.00,VWS V13.01,2013-02-20 06:20:00,
2013-02-20 01:30:00,38.6,37.3,29.60,WSW,248,15.0,25.0,95,0.00,,SKC,0.00,VWS V13.01,2013-02-20 06:30:00,
2013-02-20 01:40:00,38.3,37.0,29.60,WSW,248,16.0,26.0,95,0.00,,SKC,0.00,VWS V13.01,2013-02-20 06:40:00,
2013-02-20 01:50:00,37.8,36.2,29.60,WSW,248,18.0,29.0,94,0.00,,SKC,0.00,VWS V13.01,2013-02-20 06:50:00,
2013-02-20 02:00:00,37.6,34.9,29.60,West,270,20.0,32.0,90,0.00,,SKC,0.00,VWS V13.01,2013-02-20 07:00:00,
2013-02-20 02:10:00,37.3,34.1,29.60,WSW,248,19.0,27.0,88,0.00,,SKC,0.00,VWS V13.01,2013-02-20 07:10:00,
2013-02-20 02:20:00,37.1,33.6,29.60,WSW,248,19.0,28.0,87,0.00,,SKC,0.00,VWS V13.01,2013-02-20 07:20:00,
2013-02-20 02:30:00,36.9,32.8,29.60,WSW,248,19.0,30.0,85,0.00,,SKC,0.00,VWS V13.01,2013-02-20 07:30:00,
2013-02-20 02:40:00,36.7,31.7,29.59,West,270,20.0,32.0,82,0.00,,SKC,0.00,VWS V13.01,2013-02-20 07:40:00,
2013-02-20 02:50:00,36.6,31.9,29.60,WSW,248,18.0,30.0,83,0.00,,SKC,0.00,VWS V13.01,2013-02-20 07:50:00,
2013-02-20 03:00:00,36.5,31.8,29.60,WSW,248,19.0,30.0,83,0.00,,SKC,0.00,VWS V13.01,2013-02-20 08:00:00,
2013-02-20 03:10:00,36.4,31.4,29.60,WSW,248,19.0,32.0,82,0.00,,SKC,0.00,VWS V13.01,2013-02-20 08:10:00,
2013-02-20 03:20:00,36.2,30.9,29.59,WSW,248,19.0,30.0,81,0.00,,SKC,0.00,VWS V13.01,2013-02-20 08:20:00,
2013-02-20 03:30:00,36.1,30.8,29.60,WSW,248,20.0,32.0,81,0.00,,SKC,0.00,VWS V13.01,2013-02-20 08:30:00,
2013-02-20 03:40:00,35.9,30.6,29.59,West,270,18.0,28.0,81,0.00,,SKC,0.00,VWS V13.01,2013-02-20 08:40:00,
2013-02-20 03:50:00,35.8,30.5,29.60,West,270,19.0,33.0,81,0.00,,SKC,0.00,VWS V13.01,2013-02-20 08:50:00,
2013-02-20 04:00:00,35.9,30.3,29.60,West,270,19.0,33.0,80,0.00,,SKC,0.00,VWS V13.01,2013-02-20 09:00:00,
2013-02-20 04:10:00,36.1,29.9,29.60,West,270,21.0,33.0,78,0.00,,SKC,0.00,VWS V13.01,2013-02-20 09:10:00,
2013-02-20 04:20:00,36.1,29.9,29.60,West,270,18.0,30.0,78,0.00,,SKC,0.00,VWS V13.01,2013-02-20 09:20:00,
2013-02-20 04:30:00,36.1,29.6,29.61,West,270,20.0,34.0,77,0.00,,SKC,0.00,VWS V13.01,2013-02-20 09:30:00,
2013-02-20 04:40:00,36.1,29.6,29.61,West,270,20.0,33.0,77,0.00,,SKC,0.00,VWS V13.01,2013-02-20 09:40:00,
2013-02-20 04:50:00,36.0,29.8,29.61,West,270,17.0,28.0,78,0.00,,SKC,0.00,VWS V13.01,2013-02-20 09:50:00,
2013-02-20 05:00:00,35.9,30.0,29.62,WNW,292,18.0,31.0,79,0.00,,SKC,0.00,VWS V13.01,2013-02-20 10:00:00,
2013-02-20 05:10:00,35.6,29.7,29.62,NW,315,17.0,32.0,79,0.00,,SKC,0.00,VWS V13.01,2013-02-20 10:10:00,
2013-02-20 05:20:00,35.5,29.6,29.62,WNW,292,13.0,21.0,79,0.00,,SKC,0.00,VWS V13.01,2013-02-20 10:20:00,
2013-02-20 05:30:00,35.3,29.5,29.62,WNW,292,15.0,24.0,79,0.00,,SKC,0.00,VWS V13.01,2013-02-20 10:30:00,
2013-02-20 05:40:00,35.3,29.5,29.63,WNW,292,16.0,26.0,79,0.00,,SKC,0.00,VWS V13.01,2013-02-20 10:40:00,
2013-02-20 05:50:00,35.2,29.7,29.63,WNW,292,12.0,21.0,80,0.00,,SKC,0.00,VWS V13.01,2013-02-20 10:50:00,
2013-02-20 06:00:00,35.2,30.3,29.63,WNW,292,10.0,17.0,82,0.00,,SKC,0.00,VWS V13.01,2013-02-20 11:00:00,
2013-02-20 06:10:00,35.2,30.0,29.63,West,270,14.0,24.0,81,0.00,,SKC,0.00,VWS V13.01,2013-02-20 11:10:00,
2013-02-20 06:20:00,35.1,29.6,29.64,West,270,15.0,23.0,80,0.00,,SKC,0.00,VWS V13.01,2013-02-20 11:20:00,
2013-02-20 06:30:00,35.1,29.3,29.65,West,270,15.0,23.0,79,0.00,,SKC,0.00,VWS V13.01,2013-02-20 11:30:00,
2013-02-20 06:40:00,35.0,29.5,29.65,West,270,13.0,23.0,80,0.00,,SKC,0.00,VWS V13.01,2013-02-20 11:40:00,
2013-02-20 06:50:00,34.9,29.1,29.65,West,270,16.0,27.0,79,0.00,,SKC,0.00,VWS V13.01,2013-02-20 11:50:00,
2013-02-20 07:00:00,34.8,28.6,29.66,West,270,16.0,26.0,78,0.00,,SKC,0.00,VWS V13.01,2013-02-20 12:00:00,
2013-02-20 07:10:00,34.7,28.5,29.66,West,270,17.0,32.0,78,0.00,,SKC,0.00,VWS V13.01,2013-02-20 12:10:00,
2013-02-20 07:20:00,34.6,28.8,29.67,WNW,292,14.0,25.0,79,0.00,,SKC,0.00,VWS V13.01,2013-02-20 12:20:00,
2013-02-20 07:30:00,34.1,28.0,29.67,NW,315,14.0,26.0,78,0.00,,SKC,0.00,VWS V13.01,2013-02-20 12:30:00,
2013-02-20 07:50:00,33.5,27.4,29.68,WNW,292,16.0,27.0,78,0.00,,SKC,0.00,VWS V13.01,2013-02-20 12:50:00,
2013-02-20 08:00:00,33.3,27.2,29.69,WNW,292,17.0,28.0,78,0.00,,SKC,0.00,VWS V13.01,2013-02-20 13:00:00,
2013-02-20 08:10:00,33.1,27.0,29.69,NW,315,16.0,25.0,78,0.00,,SKC,0.00,VWS V13.01,2013-02-20 13:10:00,
2013-02-20 08:20:00,32.9,25.2,29.69,NW,315,20.0,31.0,73,0.00,,SKC,0.00,VWS V13.01,2013-02-20 13:20:00,
2013-02-20 08:30:00,32.7,24.7,29.70,WNW,292,19.0,30.0,72,0.00,,SKC,0.00,VWS V13.01,2013-02-20 13:30:00,
2013-02-20 08:40:00,32.9,24.9,29.70,WNW,292,17.0,28.0,72,0.00,,SKC,0.00,VWS V13.01,2013-02-20 13:40:00,
2013-02-20 08:50:00,33.0,24.0,29.70,WNW,292,17.0,31.0,69,0.00,,SKC,0.00,VWS V13.01,2013-02-20 13:50:00,
2013-02-20 09:00:00,33.6,24.5,29.70,WNW,292,18.0,29.0,69,0.00,,SKC,0.00,VWS V13.01,2013-02-20 14:00:00,
2013-02-20 09:10:00,33.5,23.0,29.70,WNW,292,17.0,28.0,65,0.00,,SKC,0.00,VWS V13.01,2013-02-20 14:10:00,
2013-02-20 09:20:00,32.7,21.9,29.70,WNW,292,19.0,30.0,64,0.00,,SKC,0.00,VWS V13.01,2013-02-20 14:20:00,
2013-02-20 09:30:00,32.5,21.7,29.70,WNW,292,19.0,30.0,64,0.00,,SKC,0.00,VWS V13.01,2013-02-20 14:30:00,
2013-02-20 09:40:00,32.7,22.2,29.70,WNW,292,19.0,28.0,65,0.00,,SKC,0.00,VWS V13.01,2013-02-20 14:40:00,
2013-02-20 09:50:00,32.9,22.1,29.71,WNW,292,17.0,29.0,64,0.00,,SKC,0.00,VWS V13.01,2013-02-20 14:50:00,
2013-02-20 10:00:00,34.2,23.7,29.70,WNW,292,17.0,30.0,65,0.00,,SKC,0.00,VWS V13.01,2013-02-20 15:00:00,
2013-02-20 10:10:00,34.7,21.9,29.71,West,270,19.0,32.0,59,0.00,,SKC,0.00,VWS V13.01,2013-02-20 15:10:00,
2013-02-20 10:30:00,36.3,21.3,29.70,WNW,292,18.0,29.0,54,0.00,,SKC,0.00,VWS V13.01,2013-02-20 15:30:00,
2013-02-20 10:40:00,36.4,20.5,29.71,WNW,292,21.0,36.0,52,0.00,,SKC,0.00,VWS V13.01,2013-02-20 15:40:00,
2013-02-20 10:50:00,36.4,20.5,29.70,WNW,292,17.0,30.0,52,0.00,,SKC,0.00,VWS V13.01,2013-02-20 15:50:00,
2013-02-20 11:00:00,36.6,21.1,29.70,WNW,292,20.0,31.0,53,0.00,,SKC,0.00,VWS V13.01,2013-02-20 16:00:00,
2013-02-20 11:10:00,36.7,20.8,29.70,WNW,292,22.0,36.0,52,0.00,,SKC,0.00,VWS V13.01,2013-02-20 16:10:00,
2013-02-20 11:20:00,37.3,22.2,29.70,WNW,292,18.0,30.0,54,0.00,,SKC,0.00,VWS V13.01,2013-02-20 16:20:00,
2013-02-20 11:30:00,36.6,22.0,29.70,West,270,21.0,33.0,55,0.00,,SKC,0.00,VWS V13.01,2013-02-20 16:30:00,
2013-02-20 11:40:00,36.6,22.0,29.69,West,270,19.0,33.0,55,0.00,,SKC,0.00,VWS V13.01,2013-02-20 16:40:00,
2013-02-20 11:50:00,36.0,22.7,29.70,West,270,21.0,35.0,58,0.00,,SKC,0.00,VWS V13.01,2013-02-20 16:50:00,
2013-02-20 12:00:00,35.5,22.2,29.69,West,270,22.0,37.0,58,0.00,,SKC,0.00,VWS V13.01,2013-02-20 17:00:00,
2013-02-20 12:10:00,35.5,21.8,29.69,West,270,22.0,36.0,57,0.00,,SKC,0.00,VWS V13.01,2013-02-20 17:10:00,
2013-02-20 12:30:00,35.3,22.8,29.68,West,270,22.0,37.0,60,0.00,,SKC,0.00,VWS V13.01,2013-02-20 17:30:00,
2013-02-20 12:40:00,34.7,22.6,29.68,WSW,248,23.0,35.0,61,0.00,,SKC,0.00,VWS V13.01,2013-02-20 17:40:00,
2013-02-20 12:50:00,35.1,23.0,29.67,WSW,248,22.0,33.0,61,0.00,,SKC,0.00,VWS V13.01,2013-02-20 17:50:00,
2013-02-20 13:00:00,34.8,22.3,29.67,WSW,248,22.0,42.0,60,0.00,,SKC,0.00,VWS V13.01,2013-02-20 18:00:00,
2013-02-20 13:10:00,34.9,21.2,29.67,WSW,248,24.0,39.0,57,0.00,,SKC,0.00,VWS V13.01,2013-02-20 18:10:00,
2013-02-20 13:20:00,35.0,21.3,29.67,West,270,22.0,34.0,57,0.00,,SKC,0.00,VWS V13.01,2013-02-20 18:20:00,
2013-02-20 13:30:00,34.3,20.7,29.67,West,270,21.0,33.0,57,0.00,,SKC,0.00,VWS V13.01,2013-02-20 18:30:00,
2013-02-20 13:40:00,33.1,20.4,29.68,WSW,248,23.0,33.0,59,0.00,,SKC,0.00,VWS V13.01,2013-02-20 18:40:00,
2013-02-20 13:50:00,34.6,21.4,29.68,West,270,23.0,35.0,58,0.00,,SKC,0.00,VWS V13.01,2013-02-20 18:50:00,
2013-02-20 14:00:00,34.2,21.0,29.68,WSW,248,23.0,34.0,58,0.00,,SKC,0.00,VWS V13.01,2013-02-20 19:00:00,
2013-02-20 14:10:00,34.3,21.1,29.68,West,270,24.0,37.0,58,0.00,,SKC,0.00,VWS V13.01,2013-02-20 19:10:00,
2013-02-20 14:30:00,33.7,19.7,29.68,WSW,248,25.0,40.0,56,0.00,,SKC,0.00,VWS V13.01,2013-02-20 19:30:00,
2013-02-20 14:40:00,33.8,20.2,29.68,West,270,22.0,38.0,57,0.00,,SKC,0.00,VWS V13.01,2013-02-20 19:40:00,
2013-02-20 14:50:00,34.1,18.8,29.69,West,270,23.0,37.0,53,0.00,,SKC,0.00,VWS V13.01,2013-02-20 19:50:00,
2013-02-20 15:00:00,32.9,18.1,29.69,West,270,23.0,39.0,54,0.00,,SKC,0.00,VWS V13.01,2013-02-20 20:00:00,
2013-02-20 15:10:00,33.5,18.6,29.69,West,270,24.0,38.0,54,0.00,,SKC,0.00,VWS V13.01,2013-02-20 20:10:00,
2013-02-20 15:20:00,34.1,19.2,29.69,West,270,23.0,37.0,54,0.00,,SKC,0.00,VWS V13.01,2013-02-20 20:20:00,
2013-02-20 15:30:00,34.0,18.2,29.70,West,270,22.0,41.0,52,0.00,,SKC,0.00,VWS V13.01,2013-02-20 20:30:00,
2013-02-20 15:40:00,32.1,17.8,29.70,West,270,23.0,39.0,55,0.00,,SKC,0.00,VWS V13.01,2013-02-20 20:40:00,
2013-02-20 16:00:00,32.1,20.2,29.70,West,270,22.0,36.0,61,0.00,,SKC,0.00,VWS V13.01,2013-02-20 21:00:00,
2013-02-20 16:10:00,31.8,18.3,29.71,West,270,22.0,36.0,57,0.00,,SKC,0.00,VWS V13.01,2013-02-20 21:10:00,
2013-02-20 16:30:00,31.1,16.8,29.71,West,270,25.0,36.0,55,0.00,,SKC,0.00,VWS V13.01,2013-02-20 21:30:00,
2013-02-20 16:40:00,31.1,17.2,29.71,West,270,20.0,33.0,56,0.00,,SKC,0.00,VWS V13.01,2013-02-20 21:40:00,
2013-02-20 16:50:00,31.1,16.8,29.71,WNW,292,21.0,33.0,55,0.00,,SKC,0.00,VWS V13.01,2013-02-20 21:50:00,
2013-02-20 17:00:00,31.1,16.4,29.72,WNW,292,19.0,35.0,54,0.00,,SKC,0.00,VWS V13.01,2013-02-20 22:00:00,
2013-02-20 17:40:00,30.7,16.9,29.73,West,270,18.0,33.0,56,0.00,,SKC,0.00,VWS V13.01,2013-02-20 22:40:00,
2013-02-20 17:50:00,30.5,16.3,29.74,WNW,292,17.0,29.0,55,0.00,,SKC,0.00,VWS V13.01,2013-02-20 22:50:00,
2013-02-20 18:00:00,30.4,16.2,29.75,WNW,292,18.0,30.0,55,0.00,,SKC,0.00,VWS V13.01,2013-02-20 23:00:00,
2013-02-20 18:10:00,30.3,15.7,29.75,WNW,292,21.0,33.0,54,0.00,,SKC,0.00,VWS V13.01,2013-02-20 23:10:00,
2013-02-20 18:20:00,30.1,15.5,29.74,West,270,19.0,33.0,54,0.00,,SKC,0.00,VWS V13.01,2013-02-20 23:20:00,
2013-02-20 18:30:00,30.2,16.0,29.75,West,270,22.0,32.0,55,0.00,,SKC,0.00,VWS V13.01,2013-02-20 23:30:00,
2013-02-20 18:40:00,29.9,16.5,29.76,WNW,292,20.0,33.0,57,0.00,,SKC,0.00,VWS V13.01,2013-02-20 23:40:00,
2013-02-20 18:50:00,29.9,15.7,29.76,WNW,292,19.0,33.0,55,0.00,,SKC,0.00,VWS V13.01,2013-02-20 23:50:00,
2013-02-20 19:00:00,29.9,16.5,29.76,West,270,18.0,37.0,57,0.00,,SKC,0.00,VWS V13.01,2013-02-21 00:00:00,
2013-02-20 19:10:00,29.7,16.8,29.76,West,270,19.0,32.0,58,0.00,,SKC,0.00,VWS V13.01,2013-02-21 00:10:00,
2013-02-20 19:20:00,29.6,16.6,29.77,WNW,292,19.0,33.0,58,0.00,,SKC,0.00,VWS V13.01,2013-02-21 00:20:00,
2013-02-20 19:30:00,29.6,16.2,29.77,West,270,23.0,43.0,57,0.00,,SKC,0.00,VWS V13.01,2013-02-21 00:30:00,
2013-02-20 19:40:00,29.4,15.2,29.77,West,270,22.0,39.0,55,0.00,,SKC,0.00,VWS V13.01,2013-02-21 00:40:00,
2013-02-20 19:50:00,29.1,12.8,29.78,WNW,292,23.0,42.0,50,0.00,,SKC,0.00,VWS V13.01,2013-02-21 00:50:00,
2013-02-20 20:00:00,28.9,13.5,29.78,WNW,292,22.0,35.0,52,0.00,,SKC,0.00,VWS V13.01,2013-02-21 01:00:00,
2013-02-20 20:10:00,28.7,12.4,29.78,WNW,292,23.0,38.0,50,0.00,,SKC,0.00,VWS V13.01,2013-02-21 01:10:00,
2013-02-20 20:20:00,28.4,13.0,29.78,WNW,292,21.0,36.0,52,0.00,,SKC,0.00,VWS V13.01,2013-02-21 01:20:00,
2013-02-20 20:30:00,28.4,13.5,29.78,WNW,292,21.0,39.0,53,0.00,,SKC,0.00,VWS V13.01,2013-02-21 01:30:00,
2013-02-20 20:40:00,28.3,13.4,29.79,WNW,292,22.0,36.0,53,0.00,,SKC,0.00,VWS V13.01,2013-02-21 01:40:00,
2013-02-20 20:50:00,28.1,12.3,29.79,WNW,292,20.0,32.0,51,0.00,,SKC,0.00,VWS V13.01,2013-02-21 01:50:00,
2013-02-20 21:00:00,28.0,13.5,29.80,WNW,292,20.0,31.0,54,0.00,,SKC,0.00,VWS V13.01,2013-02-21 02:00:00,
2013-02-20 21:10:00,27.9,13.0,29.80,WNW,292,21.0,33.0,53,0.00,,SKC,0.00,VWS V13.01,2013-02-21 02:10:00,
2013-02-20 21:20:00,27.7,12.4,29.81,WNW,292,22.0,35.0,52,0.00,,SKC,0.00,VWS V13.01,2013-02-21 02:20:00,
2013-02-20 21:30:00,27.6,11.9,29.80,WNW,292,21.0,33.0,51,0.00,,SKC,0.00,VWS V13.01,2013-02-21 02:30:00,
2013-02-20 21:40:00,27.5,13.5,29.81,WNW,292,20.0,33.0,55,0.00,,SKC,0.00,VWS V13.01,2013-02-21 02:40:00,
2013-02-20 21:50:00,27.5,13.1,29.80,WNW,292,21.0,38.0,54,0.00,,SKC,0.00,VWS V13.01,2013-02-21 02:50:00,
2013-02-20 22:00:00,27.3,14.1,29.81,WNW,292,18.0,30.0,57,0.00,,SKC,0.00,VWS V13.01,2013-02-21 03:00:00,
2013-02-20 22:10:00,27.2,13.6,29.81,WNW,292,19.0,32.0,56,0.00,,SKC,0.00,VWS V13.01,2013-02-21 03:10:00,
2013-02-20 22:20:00,27.1,14.3,29.82,WNW,292,19.0,33.0,58,0.00,,SKC,0.00,VWS V13.01,2013-02-21 03:20:00,
2013-02-20 22:30:00,27.0,14.6,29.82,WNW,292,20.0,30.0,59,0.00,,SKC,0.00,VWS V13.01,2013-02-21 03:30:00,
2013-02-20 22:40:00,26.9,14.1,29.82,WNW,292,18.0,31.0,58,0.00,,SKC,0.00,VWS V13.01,2013-02-21 03:40:00,
2013-02-20 22:50:00,26.7,13.9,29.82,WNW,292,17.0,31.0,58,0.00,,SKC,0.00,VWS V13.01,2013-02-21 03:50:00,
2013-02-20 23:00:00,26.6,14.6,29.82,WNW,292,17.0,30.0,60,0.00,,SKC,0.00,VWS V13.01,2013-02-21 04:00:00,
2013-02-20 23:10:00,26.6,15.0,29.82,WNW,292,18.0,31.0,61,0.00,,SKC,0.00,VWS V13.01,2013-02-21 04:10:00,
2013-02-20 23:20:00,26.5,14.9,29.83,WNW,292,20.0,33.0,61,0.00,,SKC,0.00,VWS V13.01,2013-02-21 04:20:00,
2013-02-20 23:30:00,26.5,14.9,29.83,WNW,292,20.0,33.0,61,0.00,,SKC,0.00,VWS V13.01,2013-02-21 04:30:00,
2013-02-20 23:40:00,26.4,15.2,29.83,WNW,292,20.0,33.0,62,0.00,,SKC,0.00,VWS V13.01,2013-02-21 04:40:00,
2013-02-20 23:50:00,26.4,15.5,29.84,WNW,292,19.0,33.0,63,0.00,,SKC,0.00,VWS V13.01,2013-02-21 04:50:00,